createdAt,value
2019-04-16T00:00:25.278Z,10.80
2019-04-16T00:02:56.164Z,10.80
2019-04-16T00:05:27.839Z,10.79
2019-04-16T00:08:02.102Z,10.78
2019-04-16T00:10:47.731Z,10.69
2019-04-16T00:13:34.761Z,10.69
2019-04-16T00:16:04.013Z,10.66
2019-04-16T00:18:33.225Z,10.64
2019-04-16T00:21:20.215Z,10.56
2019-04-16T00:23:56.749Z,10.54
2019-04-16T00:26:26.860Z,10.54
2019-04-16T00:28:56.704Z,10.53
2019-04-16T00:31:25.933Z,10.54
2019-04-16T00:33:55.129Z,10.55
2019-04-16T00:36:24.288Z,10.53
2019-04-16T00:38:54.128Z,10.44
2019-04-16T00:41:24.819Z,10.38
2019-04-16T00:43:54.034Z,10.40
2019-04-16T00:46:23.578Z,10.40
2019-04-16T00:48:52.754Z,10.34
2019-04-16T00:51:21.952Z,10.41
2019-04-16T00:53:51.146Z,10.36
2019-04-16T00:56:20.362Z,10.25
2019-04-16T00:58:52.218Z,10.27
2019-04-16T01:01:20.508Z,10.22
2019-04-16T01:03:50.027Z,10.22
2019-04-16T01:06:19.218Z,10.15
2019-04-16T01:08:54.820Z,10.15
2019-04-16T01:11:19.289Z,10.14
2019-04-16T01:13:48.469Z,10.09
2019-04-16T01:16:17.692Z,10.02
2019-04-16T01:18:46.971Z,10.00
2019-04-16T01:21:16.162Z,9.91
2019-04-16T01:23:48.419Z,9.91
2019-04-16T01:26:16.241Z,9.82
2019-04-16T01:29:03.688Z,9.82
2019-04-16T01:31:36.310Z,9.87
2019-04-16T01:34:18.157Z,9.81
2019-04-16T01:37:00.422Z,9.81
2019-04-16T01:39:34.036Z,9.76
2019-04-16T01:42:03.355Z,9.71
2019-04-16T01:44:32.545Z,9.74
2019-04-16T01:47:04.164Z,9.77
2019-04-16T01:49:32.606Z,9.72
2019-04-16T01:52:01.826Z,9.66
2019-04-16T01:54:31.018Z,9.69
2019-04-16T01:57:00.881Z,9.69
2019-04-16T01:59:30.383Z,9.65
2019-04-16T02:01:59.660Z,9.64
2019-04-16T02:04:28.847Z,9.60
2019-04-16T02:06:58.023Z,9.62
2019-04-16T02:09:27.211Z,9.67
2019-04-16T02:11:56.400Z,9.65
2019-04-16T02:14:25.581Z,9.68
2019-04-16T02:16:56.100Z,9.72
2019-04-16T02:19:25.863Z,9.63
2019-04-16T02:21:55.047Z,9.57
2019-04-16T02:24:24.252Z,9.55
2019-04-16T02:26:54.847Z,9.54
2019-04-16T02:29:24.392Z,9.59
2019-04-16T02:31:53.585Z,9.48
2019-04-16T02:34:22.780Z,9.56
2019-04-16T02:36:51.973Z,9.47
2019-04-16T02:39:25.752Z,9.53
2019-04-16T02:41:56.811Z,9.45
2019-04-16T02:44:22.942Z,9.36
2019-04-16T02:46:52.106Z,9.40
2019-04-16T02:49:24.463Z,9.36
2019-04-16T02:51:56.681Z,9.31
2019-04-16T02:54:34.395Z,9.29
2019-04-16T02:57:25.785Z,9.29
2019-04-16T02:59:53.101Z,9.34
2019-04-16T03:02:35.989Z,9.26
2019-04-16T03:05:14.304Z,9.25
2019-04-16T03:07:43.468Z,9.28
2019-04-16T03:10:13.906Z,9.20
2019-04-16T03:12:43.193Z,9.16
2019-04-16T03:15:14.131Z,9.10
2019-04-16T03:17:44.967Z,9.20
2019-04-16T03:20:16.550Z,9.13
2019-04-16T03:22:45.775Z,9.18
2019-04-16T03:25:15.432Z,9.08
2019-04-16T03:27:44.625Z,9.01
2019-04-16T03:30:13.966Z,9.05
2019-04-16T03:32:49.989Z,9.06
2019-04-16T03:35:19.277Z,9.09
2019-04-16T03:37:48.500Z,9.01
2019-04-16T03:40:18.887Z,9.03
2019-04-16T03:42:48.575Z,9.06
2019-04-16T03:45:17.787Z,9.01
2019-04-16T03:47:50.989Z,9.00
2019-04-16T03:50:17.915Z,8.96
2019-04-16T03:52:47.332Z,9.00
2019-04-16T03:55:16.522Z,8.95
2019-04-16T03:57:45.715Z,8.97
2019-04-16T04:00:15.313Z,8.91
2019-04-16T04:02:44.580Z,8.89
2019-04-16T04:05:13.775Z,8.91
2019-04-16T04:07:44.165Z,8.81
2019-04-16T04:10:14.117Z,8.87
2019-04-16T04:12:45.867Z,8.90
2019-04-16T04:15:14.189Z,8.86
2019-04-16T04:17:43.377Z,8.88
2019-04-16T04:20:14.656Z,8.86
2019-04-16T04:22:43.429Z,8.86
2019-04-16T04:25:12.757Z,8.87
2019-04-16T04:27:43.560Z,8.85
2019-04-16T04:30:13.648Z,8.83
2019-04-16T04:32:42.829Z,8.80
2019-04-16T04:35:12.093Z,8.87
2019-04-16T04:38:00.887Z,8.87
2019-04-16T04:40:50.844Z,8.82
2019-04-16T04:43:19.108Z,8.92
2019-04-16T04:45:48.302Z,8.85
2019-04-16T04:48:17.476Z,8.74
2019-04-16T04:50:46.742Z,8.75
2019-04-16T04:53:19.171Z,8.76
2019-04-16T04:55:46.791Z,8.75
2019-04-16T04:58:16.010Z,8.78
2019-04-16T05:00:45.191Z,8.72
2019-04-16T05:03:16.856Z,8.72
2019-04-16T05:05:47.740Z,8.60
2019-04-16T05:08:16.937Z,8.64
2019-04-16T05:10:58.315Z,8.69
2019-04-16T05:13:17.027Z,8.65
2019-04-16T05:15:46.234Z,8.58
2019-04-16T05:18:15.396Z,8.61
2019-04-16T05:20:46.963Z,8.57
2019-04-16T05:23:15.519Z,8.64
2019-04-16T05:25:44.692Z,8.61
2019-04-16T05:28:13.875Z,8.57
2019-04-16T05:30:43.056Z,8.54
2019-04-16T05:33:12.254Z,8.65
2019-04-16T05:35:42.395Z,8.48
2019-04-16T05:38:11.629Z,8.51
2019-04-16T05:41:12.232Z,8.64
2019-04-16T05:43:30.865Z,8.52
2019-04-16T05:46:00.062Z,8.56
2019-04-16T05:48:29.274Z,8.60
2019-04-16T05:50:59.992Z,8.58
2019-04-16T05:53:29.340Z,8.56
2019-04-16T05:56:02.966Z,8.54
2019-04-16T05:58:32.159Z,8.56
2019-04-16T06:01:05.742Z,8.79
2019-04-16T06:03:35.004Z,8.79
2019-04-16T06:06:04.200Z,8.89
2019-04-16T06:08:33.412Z,8.82
2019-04-16T06:11:02.581Z,8.92
2019-04-16T06:13:36.370Z,8.97
2019-04-16T06:16:10.175Z,8.98
2019-04-16T06:18:46.605Z,8.92
2019-04-16T06:21:32.572Z,9.13
2019-04-16T06:24:19.497Z,9.17
2019-04-16T06:26:53.035Z,9.26
2019-04-16T06:29:39.786Z,9.18
2019-04-16T06:32:11.856Z,9.17
2019-04-16T06:35:01.227Z,9.34
2019-04-16T06:37:34.865Z,9.27
2019-04-16T06:40:12.883Z,9.57
2019-04-16T06:42:44.034Z,9.64
2019-04-16T06:45:36.496Z,9.63
2019-04-16T06:48:03.705Z,9.74
2019-04-16T06:50:39.602Z,9.72
2019-04-16T06:53:15.870Z,9.84
2019-04-16T06:55:46.688Z,10.03
2019-04-16T06:58:18.362Z,10.03
2019-04-16T07:01:05.869Z,10.06
2019-04-16T07:03:48.951Z,10.15
2019-04-16T07:06:22.826Z,10.32
2019-04-16T07:08:58.226Z,11.65
2019-04-16T07:11:29.077Z,12.78
2019-04-16T07:13:58.275Z,13.86
2019-04-16T07:16:28.924Z,13.74
2019-04-16T07:18:58.248Z,13.92
2019-04-16T07:21:27.464Z,13.92
2019-04-16T07:23:58.413Z,13.22
2019-04-16T07:26:27.698Z,13.43
2019-04-16T07:29:07.173Z,14.73
2019-04-16T07:31:56.206Z,15.18
2019-04-16T07:34:35.468Z,15.69
2019-04-16T07:37:11.764Z,14.96
2019-04-16T07:39:51.551Z,15.12
2019-04-16T07:42:28.416Z,15.51
2019-04-16T07:45:01.965Z,15.73
2019-04-16T07:47:45.145Z,16.36
2019-04-16T07:50:21.830Z,17.26
2019-04-16T07:52:53.045Z,17.35
2019-04-16T07:55:27.382Z,16.94
2019-04-16T07:57:56.990Z,16.47
2019-04-16T08:00:26.182Z,15.99
2019-04-16T08:02:55.484Z,16.45
2019-04-16T08:05:27.690Z,17.12
2019-04-16T08:07:55.573Z,17.28
2019-04-16T08:10:24.823Z,15.91
2019-04-16T08:12:56.974Z,16.26
2019-04-16T08:15:26.549Z,16.19
2019-04-16T08:18:13.589Z,16.72
2019-04-16T08:20:42.785Z,16.74
2019-04-16T08:23:25.287Z,17.47
2019-04-16T08:26:02.570Z,17.86
2019-04-16T08:28:26.138Z,16.97
2019-04-16T08:30:55.355Z,15.97
2019-04-16T08:33:28.242Z,14.63
2019-04-16T08:35:55.483Z,13.65
2019-04-16T08:38:26.101Z,13.33
2019-04-16T08:40:55.529Z,13.25
2019-04-16T08:43:26.649Z,13.42
2019-04-16T08:45:55.617Z,13.53
2019-04-16T08:48:42.648Z,13.42
2019-04-16T08:51:11.833Z,13.37
2019-04-16T08:53:43.712Z,13.56
2019-04-16T08:56:12.122Z,13.35
2019-04-16T08:58:41.393Z,13.27
2019-04-16T09:01:12.240Z,13.15
2019-04-16T09:03:41.430Z,13.17
2019-04-16T09:06:13.524Z,13.25
2019-04-16T09:08:43.147Z,13.25
2019-04-16T09:11:23.188Z,13.22
2019-04-16T09:13:48.093Z,13.22
2019-04-16T09:16:15.748Z,13.04
2019-04-16T09:18:52.422Z,12.97
2019-04-16T09:21:21.631Z,13.08
2019-04-16T09:24:09.569Z,13.24
2019-04-16T09:26:43.747Z,13.21
2019-04-16T09:29:29.810Z,13.48
2019-04-16T09:32:06.649Z,13.55
2019-04-16T09:34:53.369Z,13.53
2019-04-16T09:37:28.730Z,13.61
2019-04-16T09:40:16.068Z,13.62
2019-04-16T09:42:36.522Z,13.54
2019-04-16T09:45:10.163Z,13.66
2019-04-16T09:47:39.289Z,13.82
2019-04-16T09:50:11.068Z,14.03
2019-04-16T09:52:39.552Z,13.91
2019-04-16T09:55:08.890Z,13.91
2019-04-16T09:57:38.082Z,13.83
2019-04-16T10:00:09.860Z,13.64
2019-04-16T10:02:39.052Z,13.80
2019-04-16T10:05:08.779Z,13.90
2019-04-16T10:07:40.413Z,14.10
2019-04-16T10:10:09.190Z,14.08
2019-04-16T10:12:38.353Z,13.96
2019-04-16T10:15:08.364Z,14.17
2019-04-16T10:17:37.580Z,14.15
2019-04-16T10:20:08.150Z,14.05
2019-04-16T10:22:37.365Z,14.17
2019-04-16T10:25:08.640Z,14.16
2019-04-16T10:27:39.459Z,14.06
2019-04-16T10:30:14.037Z,14.06
2019-04-16T10:32:43.255Z,14.00
2019-04-16T10:35:12.890Z,14.26
2019-04-16T10:37:42.082Z,14.07
2019-04-16T10:40:13.064Z,14.21
2019-04-16T10:43:02.070Z,14.35
2019-04-16T10:45:42.799Z,14.38
2019-04-16T10:48:19.271Z,14.52
2019-04-16T10:51:05.000Z,14.61
2019-04-16T10:53:41.717Z,14.77
2019-04-16T10:56:22.144Z,14.67
2019-04-16T10:59:17.087Z,14.67
2019-04-16T11:02:11.716Z,14.79
2019-04-16T11:04:45.157Z,14.72
2019-04-16T11:07:20.851Z,14.83
2019-04-16T11:09:50.149Z,14.98
2019-04-16T11:12:19.839Z,14.93
2019-04-16T11:14:49.142Z,14.91
2019-04-16T11:17:20.086Z,14.89
2019-04-16T11:19:52.562Z,14.96
2019-04-16T11:22:20.163Z,14.96
2019-04-16T11:24:49.360Z,15.12
2019-04-16T11:27:18.671Z,15.17
2019-04-16T11:29:47.905Z,15.20
2019-04-16T11:32:24.747Z,15.20
2019-04-16T11:34:53.925Z,15.23
2019-04-16T11:37:23.178Z,15.40
2019-04-16T11:39:52.391Z,15.51
2019-04-16T11:42:21.847Z,15.66
2019-04-16T11:44:51.039Z,15.61
2019-04-16T11:47:20.226Z,15.68
2019-04-16T11:49:49.482Z,15.78
2019-04-16T11:52:18.812Z,15.88
2019-04-16T11:54:47.948Z,15.86
2019-04-16T11:57:17.178Z,15.94
2019-04-16T11:59:46.339Z,16.04
2019-04-16T12:02:33.389Z,16.16
2019-04-16T12:05:09.955Z,16.23
2019-04-16T12:07:46.908Z,16.37
2019-04-16T12:10:32.196Z,16.28
2019-04-16T12:13:03.969Z,16.29
2019-04-16T12:15:47.192Z,16.43
2019-04-16T12:18:24.059Z,16.33
2019-04-16T12:20:54.896Z,16.30
2019-04-16T12:23:28.576Z,16.43
2019-04-16T12:26:10.540Z,16.32
2019-04-16T12:28:50.362Z,16.33
2019-04-16T12:31:54.290Z,16.37
2019-04-16T12:34:40.211Z,16.46
2019-04-16T12:37:13.797Z,16.46
2019-04-16T12:39:50.867Z,16.50
2019-04-16T12:42:30.504Z,16.55
2019-04-16T12:45:01.624Z,16.63
2019-04-16T12:47:32.679Z,16.71
2019-04-16T12:50:05.958Z,16.70
2019-04-16T12:52:45.877Z,16.80
2019-04-16T12:55:32.526Z,16.69
2019-04-16T12:58:09.260Z,16.81
2019-04-16T13:00:42.568Z,16.80
2019-04-16T13:03:22.100Z,16.95
2019-04-16T13:09:18.436Z,16.83
2019-04-16T13:11:51.822Z,16.91
2019-04-16T13:14:31.282Z,17.00
2019-04-16T13:17:15.102Z,17.19
2019-04-16T13:19:52.440Z,17.10
2019-04-16T13:22:31.936Z,17.04
2019-04-16T13:25:08.566Z,17.02
2019-04-16T13:27:39.393Z,17.28
2019-04-16T13:30:11.670Z,17.22
2019-04-16T13:32:40.854Z,17.20
2019-04-16T13:35:10.130Z,17.12
2019-04-16T13:37:39.318Z,17.17
2019-04-16T13:40:13.595Z,17.15
2019-04-16T13:42:42.858Z,17.30
2019-04-16T13:45:21.988Z,17.44
2019-04-16T13:47:54.645Z,17.27
2019-04-16T13:50:25.792Z,17.38
2019-04-16T13:53:05.547Z,17.44
2019-04-16T13:55:49.312Z,17.54
2019-04-16T13:58:34.267Z,17.52
2019-04-16T14:01:10.988Z,17.37
2019-04-16T14:03:40.159Z,17.54
2019-04-16T14:06:16.138Z,17.61
2019-04-16T14:08:45.329Z,17.57
2019-04-16T14:11:16.561Z,17.59
2019-04-16T14:13:50.086Z,17.53
2019-04-16T14:16:17.419Z,17.62
2019-04-16T14:18:46.599Z,17.69
2019-04-16T14:21:15.782Z,17.64
2019-04-16T14:23:51.649Z,17.65
2019-04-16T14:26:20.858Z,17.81
2019-04-16T14:28:52.394Z,17.82
2019-04-16T14:31:22.610Z,17.85
2019-04-16T14:33:53.406Z,17.75
2019-04-16T14:36:22.594Z,17.79
2019-04-16T14:39:09.876Z,17.77
2019-04-16T14:41:39.132Z,17.75
2019-04-16T14:44:13.004Z,17.72
2019-04-16T14:46:42.180Z,17.69
2019-04-16T14:49:11.390Z,17.76
2019-04-16T14:51:40.569Z,17.78
2019-04-16T14:54:14.086Z,17.81
2019-04-16T14:56:47.620Z,17.91
2019-04-16T14:59:35.454Z,17.78
2019-04-16T15:02:06.291Z,17.76
2019-04-16T15:04:42.917Z,17.84
2019-04-16T15:07:12.572Z,17.93
2019-04-16T15:09:49.255Z,17.86
2019-04-16T15:12:34.743Z,17.90
2019-04-16T15:15:20.827Z,17.97
2019-04-16T15:17:51.668Z,18.03
2019-04-16T15:20:25.054Z,18.01
2019-04-16T15:23:12.118Z,17.89
2019-04-16T15:25:54.911Z,17.97
2019-04-16T15:28:25.745Z,18.10
2019-04-16T15:31:01.570Z,18.05
2019-04-16T15:33:47.309Z,18.03
2019-04-16T15:36:19.470Z,18.07
2019-04-16T15:38:58.963Z,17.99
2019-04-16T15:41:28.851Z,18.02
2019-04-16T15:44:15.875Z,18.00
2019-04-16T15:46:49.932Z,17.93
2019-04-16T15:49:24.347Z,18.00
2019-04-16T15:52:00.893Z,18.05
2019-04-16T15:54:31.745Z,18.09
2019-04-16T15:57:18.493Z,18.06
2019-04-16T15:59:50.321Z,18.06
2019-04-16T16:02:21.259Z,18.03
2019-04-16T16:04:55.068Z,18.00
2019-04-16T16:07:25.149Z,17.99
2019-04-16T16:10:01.877Z,17.99
2019-04-16T16:12:31.084Z,17.91
2019-04-16T16:15:00.238Z,17.98
2019-04-16T16:17:29.428Z,17.97
2019-04-16T16:19:58.623Z,17.94
2019-04-16T16:22:27.852Z,17.97
2019-04-16T16:24:57.322Z,17.98
2019-04-16T16:27:27.476Z,17.93
2019-04-16T16:29:56.668Z,17.86
2019-04-16T16:32:25.926Z,17.87
2019-04-16T16:34:55.556Z,17.86
2019-04-16T16:37:24.821Z,17.82
2019-04-16T16:39:54.017Z,17.80
2019-04-16T16:42:23.243Z,17.77
2019-04-16T16:44:52.482Z,17.81
2019-04-16T16:47:23.315Z,17.80
2019-04-16T16:49:52.763Z,17.78
2019-04-16T16:52:23.744Z,17.79
2019-04-16T16:54:54.564Z,17.77
2019-04-16T16:57:34.022Z,17.76
2019-04-16T17:00:10.806Z,17.75
2019-04-16T17:02:41.665Z,17.69
2019-04-16T17:05:12.558Z,17.68
2019-04-16T17:07:41.753Z,17.66
2019-04-16T17:10:11.293Z,17.69
2019-04-16T17:12:40.487Z,17.65
2019-04-16T17:15:09.762Z,17.62
2019-04-16T17:17:38.961Z,17.60
2019-04-16T17:20:08.223Z,17.60
2019-04-16T17:22:40.603Z,17.60
2019-04-16T17:25:11.692Z,17.57
2019-04-16T17:27:51.275Z,17.51
2019-04-16T17:30:11.330Z,17.50
2019-04-16T17:32:42.228Z,17.53
2019-04-16T17:35:15.434Z,17.53
2019-04-16T17:37:43.662Z,17.51
2019-04-16T17:40:17.005Z,17.50
2019-04-16T17:42:47.966Z,17.49
2019-04-16T17:45:25.007Z,17.50
2019-04-16T17:48:05.056Z,17.47
2019-04-16T17:50:39.354Z,17.45
2019-04-16T17:53:18.272Z,17.43
2019-04-16T17:56:05.646Z,17.45
2019-04-16T17:58:36.538Z,17.43
2019-04-16T18:01:11.073Z,17.41
2019-04-16T18:03:42.057Z,17.42
2019-04-16T18:06:15.355Z,17.41
2019-04-16T18:09:04.508Z,17.40
2019-04-16T18:11:51.587Z,17.37
2019-04-16T18:14:38.519Z,17.37
2019-04-16T18:17:20.871Z,17.33
2019-04-16T18:20:00.706Z,17.31
2019-04-16T18:22:47.564Z,17.31
2019-04-16T18:25:21.216Z,17.30
2019-04-16T18:28:04.857Z,17.29
2019-04-16T18:30:38.169Z,17.27
2019-04-16T18:33:09.094Z,17.26
2019-04-16T18:35:42.497Z,17.20
2019-04-16T18:38:13.348Z,17.21
2019-04-16T18:40:49.935Z,17.20
2019-04-16T18:43:36.777Z,17.16
2019-04-16T18:46:08.481Z,17.12
2019-04-16T18:48:44.800Z,17.07
2019-04-16T18:51:13.307Z,16.98
2019-04-16T18:53:43.374Z,16.94
2019-04-16T18:56:13.293Z,16.89
2019-04-16T18:58:42.476Z,16.90
2019-04-16T19:01:13.294Z,16.86
2019-04-16T19:03:42.486Z,16.82
2019-04-16T19:06:11.678Z,16.81
2019-04-16T19:08:42.390Z,16.79
2019-04-16T19:11:11.769Z,16.72
2019-04-16T19:13:40.962Z,16.74
2019-04-16T19:16:10.145Z,16.75
2019-04-16T19:18:39.342Z,16.73
2019-04-16T19:21:08.619Z,16.69
2019-04-16T19:23:37.813Z,16.75
2019-04-16T19:26:07.362Z,16.72
2019-04-16T19:28:39.585Z,16.68
2019-04-16T19:31:07.511Z,16.64
2019-04-16T19:33:38.464Z,16.62
2019-04-16T19:36:07.822Z,16.64
2019-04-16T19:38:39.330Z,16.61
2019-04-16T19:41:08.040Z,16.56
2019-04-16T19:43:37.281Z,16.54
2019-04-16T19:46:06.763Z,16.54
2019-04-16T19:48:36.474Z,16.53
2019-04-16T19:51:07.244Z,16.50
2019-04-16T19:53:36.845Z,16.53
2019-04-16T19:56:06.183Z,16.56
2019-04-16T19:58:36.502Z,16.54
2019-04-16T20:01:06.242Z,16.51
2019-04-16T20:03:35.638Z,16.45
2019-04-16T20:06:05.130Z,16.40
2019-04-16T20:08:40.468Z,16.37
2019-04-16T20:11:09.647Z,16.34
2019-04-16T20:13:39.846Z,16.30
2019-04-16T20:16:09.060Z,16.32
2019-04-16T20:18:50.243Z,16.32
2019-04-16T20:21:09.134Z,16.29
2019-04-16T20:23:38.324Z,16.24
2019-04-16T20:26:07.522Z,16.24
2019-04-16T20:28:36.732Z,16.24
2019-04-16T20:31:05.933Z,16.26
2019-04-16T20:33:35.150Z,16.20
2019-04-16T20:36:04.414Z,16.23
2019-04-16T20:38:33.623Z,16.14
2019-04-16T20:41:02.888Z,16.08
2019-04-16T20:43:32.092Z,16.11
2019-04-16T20:46:01.287Z,16.01
2019-04-16T20:48:30.470Z,15.94
2019-04-16T20:51:00.233Z,15.83
2019-04-16T20:53:29.519Z,15.81
2019-04-16T20:55:58.720Z,15.84
2019-04-16T20:58:31.249Z,15.79
2019-04-16T21:01:00.538Z,15.76
2019-04-16T21:03:31.291Z,15.72
2019-04-16T21:06:01.062Z,15.59
2019-04-16T21:08:30.279Z,15.51
2019-04-16T21:11:17.773Z,15.52
2019-04-16T21:13:50.125Z,15.53
2019-04-16T21:16:17.867Z,15.47
2019-04-16T21:18:47.065Z,15.45
2019-04-16T21:21:16.251Z,15.36
2019-04-16T21:23:45.443Z,15.34
2019-04-16T21:26:16.546Z,15.25
2019-04-16T21:28:58.231Z,15.25
2019-04-16T21:31:37.256Z,15.31
2019-04-16T21:34:24.938Z,15.25
2019-04-16T21:37:12.149Z,15.20
2019-04-16T21:39:51.294Z,15.22
2019-04-16T21:42:19.550Z,15.14
2019-04-16T21:44:48.744Z,15.12
2019-04-16T21:47:23.223Z,15.13
2019-04-16T21:50:07.655Z,15.01
2019-04-16T21:52:36.844Z,14.88
2019-04-16T21:55:08.325Z,14.85
2019-04-16T21:57:37.546Z,14.80
2019-04-16T22:00:10.374Z,14.81
2019-04-16T22:02:41.170Z,14.89
2019-04-16T22:05:10.480Z,14.94
2019-04-16T22:07:39.660Z,14.91
2019-04-16T22:10:09.013Z,14.82
2019-04-16T22:12:38.181Z,14.86
2019-04-16T22:15:07.707Z,14.80
2019-04-16T22:17:36.928Z,14.74
2019-04-16T22:20:07.218Z,14.76
2019-04-16T22:22:36.410Z,14.72
2019-04-16T22:25:06.523Z,14.76
2019-04-16T22:27:36.725Z,14.72
2019-04-16T22:30:07.184Z,14.71
2019-04-16T22:32:36.415Z,14.71
2019-04-16T22:35:06.570Z,14.69
2019-04-16T22:37:35.700Z,14.71
2019-04-16T22:40:22.511Z,14.77
2019-04-16T22:42:49.384Z,14.67
2019-04-16T22:45:34.893Z,14.72
2019-04-16T22:48:04.071Z,14.68
2019-04-16T22:50:34.798Z,14.61
2019-04-16T22:53:04.117Z,14.58
2019-04-16T22:55:33.322Z,14.52
2019-04-16T22:58:04.529Z,14.49
2019-04-16T23:00:44.111Z,14.49
2019-04-16T23:03:12.007Z,14.53
2019-04-16T23:05:41.179Z,14.57
2019-04-16T23:08:12.794Z,14.56
2019-04-16T23:10:41.214Z,14.53
2019-04-16T23:13:10.406Z,14.46
2019-04-16T23:15:40.249Z,14.42
2019-04-16T23:18:27.355Z,14.39
2019-04-16T23:20:56.559Z,14.41
2019-04-16T23:23:25.737Z,14.37
2019-04-16T23:25:59.044Z,14.33
2019-04-16T23:28:25.788Z,14.29
2019-04-16T23:30:55.016Z,14.37
2019-04-16T23:33:24.200Z,14.41
2019-04-16T23:35:53.370Z,14.32
2019-04-16T23:38:22.550Z,14.28
2019-04-16T23:40:51.735Z,14.21
2019-04-16T23:43:28.797Z,14.18
2019-04-16T23:46:04.997Z,14.17
2019-04-16T23:48:37.708Z,14.15
2019-04-16T23:51:14.725Z,14.16
2019-04-16T23:53:45.550Z,14.26
2019-04-16T23:56:17.848Z,14.22
2019-04-16T23:58:48.903Z,14.19
